Ash, Missouri
Current Conditions -  °F | °C
As of 7:35 AM on Saturday 25 Oct 2014 (Local Time) from KHAE Reporting Station
Moderate Fog Moderate Fog  
Wind Chill: 55°   Ceiling: 100
Heat Index: 55°   Visibility: 0mi
Dew Point: 54°   Wind: 5mph
Humidity: 94%   Direction: 250°WSW
Pressure: 30.04"   Gusts: NA
Location:  39.4792°N, 92.217°W
Report Text: KHAE 251235Z AUTO 25004KT M1/4SM FG OVC001 13/12 A3004 RMK AO2
Loading
Personal Weather Stations






























Interactive Weather Map
Tropical Storm Tracking
New forecast layout! Learn more

10-Day Weather Forecast

Advertisements
Track Severe Weather on mobile